createdAt,value
2022-10-26T00:01:24.271Z,8.44
2022-10-26T00:03:52.331Z,8.24
2022-10-26T00:06:24.850Z,8.57
2022-10-26T00:08:53.525Z,8.72
2022-10-26T00:11:21.597Z,8.78
2022-10-26T00:13:49.610Z,8.76
2022-10-26T00:16:19.854Z,8.80
2022-10-26T00:18:48.114Z,8.79
2022-10-26T00:21:16.093Z,8.87
2022-10-26T00:23:45.782Z,8.87
2022-10-26T00:26:13.704Z,8.97
2022-10-26T00:28:41.766Z,8.90
2022-10-26T00:31:14.446Z,8.97
2022-10-26T00:33:42.464Z,8.66
2022-10-26T00:36:11.004Z,8.95
2022-10-26T00:38:39.201Z,8.96
2022-10-26T00:41:08.380Z,8.86
2022-10-26T00:43:40.610Z,8.74
2022-10-26T00:46:16.374Z,8.65
2022-10-26T00:48:47.704Z,8.66
2022-10-26T00:51:22.030Z,8.51
2022-10-26T00:53:50.750Z,8.44
2022-10-26T00:56:20.223Z,8.31
2022-10-26T00:58:48.696Z,8.14
2022-10-26T01:01:16.952Z,8.11
2022-10-26T01:03:46.814Z,8.21
2022-10-26T01:06:15.522Z,8.20
2022-10-26T01:08:45.070Z,7.57
2022-10-26T01:11:14.162Z,8.27
2022-10-26T01:13:45.840Z,8.20
2022-10-26T01:16:35.104Z,8.28
2022-10-26T01:19:30.406Z,8.31
2022-10-26T01:22:07.572Z,8.28
2022-10-26T01:24:59.262Z,8.45
2022-10-26T01:27:30.765Z,8.27
2022-10-26T01:30:21.890Z,8.50
2022-10-26T01:33:04.782Z,8.63
2022-10-26T01:35:36.820Z,8.60
2022-10-26T01:38:10.097Z,8.48
2022-10-26T01:40:44.583Z,8.42
2022-10-26T01:43:14.788Z,8.34
2022-10-26T01:45:48.227Z,8.40
2022-10-26T01:48:20.055Z,8.10
2022-10-26T01:50:51.110Z,8.31
2022-10-26T01:53:20.674Z,8.34
2022-10-26T01:55:51.190Z,8.30
2022-10-26T01:58:51.021Z,8.31
2022-10-26T02:01:44.589Z,8.21
2022-10-26T02:04:27.456Z,8.27
2022-10-26T02:07:03.344Z,8.06
2022-10-26T02:09:39.779Z,8.30
2022-10-26T02:12:15.923Z,8.22
2022-10-26T02:14:50.490Z,8.15
2022-10-26T02:17:28.403Z,8.12
2022-10-26T02:20:00.191Z,8.24
2022-10-26T02:22:33.252Z,8.24
2022-10-26T02:25:06.503Z,8.11
2022-10-26T02:27:38.668Z,8.14
2022-10-26T02:30:08.318Z,8.19
2022-10-26T02:32:41.571Z,8.25
2022-10-26T02:35:10.108Z,8.23
2022-10-26T02:37:39.742Z,8.27
2022-10-26T02:40:13.077Z,8.24
2022-10-26T02:42:43.111Z,8.13
2022-10-26T02:45:14.353Z,8.05
2022-10-26T02:47:43.792Z,8.10
2022-10-26T02:50:12.028Z,8.15
2022-10-26T02:52:47.566Z,8.16
2022-10-26T02:55:20.023Z,7.79
2022-10-26T02:57:52.071Z,7.82
2022-10-26T03:00:20.525Z,7.91
2022-10-26T03:02:54.985Z,7.83
2022-10-26T03:05:26.184Z,8.05
2022-10-26T03:07:54.241Z,8.13
2022-10-26T03:10:22.976Z,8.18
2022-10-26T03:12:51.415Z,7.98
2022-10-26T03:15:19.570Z,8.16
2022-10-26T03:17:47.497Z,8.06
2022-10-26T03:20:17.361Z,8.18
2022-10-26T03:22:45.191Z,8.12
2022-10-26T03:25:13.041Z,8.09
2022-10-26T03:27:40.875Z,8.11
2022-10-26T03:30:09.765Z,8.06
2022-10-26T03:32:37.702Z,7.82
2022-10-26T03:35:06.294Z,7.80
2022-10-26T03:37:35.461Z,7.90
2022-10-26T03:40:03.288Z,7.93
2022-10-26T03:42:34.753Z,8.03
2022-10-26T03:45:02.674Z,7.93
2022-10-26T03:47:30.555Z,7.90
2022-10-26T03:49:58.478Z,7.92
2022-10-26T03:52:26.511Z,7.85
2022-10-26T03:54:55.884Z,7.97
2022-10-26T03:57:23.863Z,8.05
2022-10-26T03:59:51.771Z,8.06
2022-10-26T04:02:19.644Z,8.05
2022-10-26T04:04:47.481Z,7.96
2022-10-26T04:07:15.283Z,7.72
2022-10-26T04:09:43.163Z,7.98
2022-10-26T04:12:12.398Z,8.00
2022-10-26T04:14:40.342Z,7.94
2022-10-26T04:17:08.429Z,7.82
2022-10-26T04:19:36.251Z,7.95
2022-10-26T04:22:04.107Z,8.02
2022-10-26T04:24:32.889Z,7.99
2022-10-26T04:27:00.738Z,7.98
2022-10-26T04:29:30.086Z,7.89
2022-10-26T04:31:57.896Z,7.94
2022-10-26T04:34:25.751Z,8.08
2022-10-26T04:36:53.706Z,8.04
2022-10-26T04:39:21.544Z,7.94
2022-10-26T04:41:49.372Z,7.87
2022-10-26T04:44:17.247Z,7.89
2022-10-26T04:46:46.416Z,7.80
2022-10-26T04:49:14.536Z,7.77
2022-10-26T04:51:42.903Z,7.82
2022-10-26T04:54:10.815Z,7.75
2022-10-26T04:56:38.700Z,7.78
2022-10-26T04:59:06.550Z,7.79
2022-10-26T05:01:34.876Z,6.59
2022-10-26T05:04:04.194Z,7.61
2022-10-26T05:06:32.203Z,7.69
2022-10-26T05:09:00.021Z,7.49
2022-10-26T05:11:27.919Z,7.46
2022-10-26T05:13:55.796Z,7.21
2022-10-26T05:16:23.856Z,7.12
2022-10-26T05:18:51.822Z,7.50
2022-10-26T05:21:21.062Z,7.52
2022-10-26T05:23:52.528Z,7.53
2022-10-26T05:26:21.002Z,7.56
2022-10-26T05:28:49.130Z,7.36
2022-10-26T05:31:17.192Z,7.32
2022-10-26T05:33:45.069Z,7.36
2022-10-26T05:36:12.910Z,7.20
2022-10-26T05:38:42.072Z,7.25
2022-10-26T05:41:09.941Z,7.30
2022-10-26T05:43:37.877Z,7.38
2022-10-26T05:46:06.220Z,7.21
2022-10-26T05:48:34.080Z,7.42
2022-10-26T05:51:02.581Z,7.40
2022-10-26T05:53:30.427Z,7.49
2022-10-26T05:56:00.369Z,7.37
2022-10-26T05:58:28.670Z,7.56
2022-10-26T06:01:14.970Z,7.43
2022-10-26T06:04:02.227Z,7.53
2022-10-26T06:06:35.459Z,7.45
2022-10-26T06:09:03.851Z,7.44
2022-10-26T06:11:34.069Z,7.12
2022-10-26T06:14:02.126Z,7.58
2022-10-26T06:16:38.496Z,7.55
2022-10-26T06:19:21.932Z,7.62
2022-10-26T06:22:02.275Z,7.65
2022-10-26T06:24:36.610Z,7.73
2022-10-26T06:27:19.939Z,7.79
2022-10-26T06:29:54.665Z,7.88
2022-10-26T06:32:24.861Z,7.89
2022-10-26T06:35:01.733Z,7.93
2022-10-26T06:37:32.764Z,8.02
2022-10-26T06:40:01.707Z,8.09
2022-10-26T06:42:32.740Z,8.10
2022-10-26T06:45:01.082Z,8.07
2022-10-26T06:47:38.037Z,8.10
2022-10-26T06:50:13.769Z,8.07
2022-10-26T06:52:48.792Z,8.13
2022-10-26T06:55:17.801Z,8.20
2022-10-26T06:57:47.501Z,8.29
2022-10-26T07:00:21.121Z,8.34
2022-10-26T07:02:50.636Z,8.24
2022-10-26T07:05:18.895Z,8.39
2022-10-26T07:07:48.799Z,8.68
2022-10-26T07:10:17.206Z,8.57
2022-10-26T07:12:48.083Z,8.62
2022-10-26T07:15:16.184Z,8.76
2022-10-26T07:17:45.613Z,8.85
2022-10-26T07:20:14.363Z,8.84
2022-10-26T07:22:42.925Z,8.95
2022-10-26T07:25:12.250Z,9.09
2022-10-26T07:27:40.118Z,9.19
2022-10-26T07:30:11.001Z,9.19
2022-10-26T07:32:38.820Z,9.27
2022-10-26T07:35:07.028Z,9.37
2022-10-26T07:37:34.859Z,9.44
2022-10-26T07:40:06.569Z,9.59
2022-10-26T07:42:36.471Z,9.68
2022-10-26T07:45:05.677Z,9.93
2022-10-26T07:47:34.896Z,10.03
2022-10-26T07:50:03.378Z,10.13
2022-10-26T07:52:31.285Z,10.25
2022-10-26T07:54:59.085Z,10.37
2022-10-26T07:57:26.935Z,10.50
2022-10-26T07:59:54.967Z,10.60
2022-10-26T08:02:22.772Z,10.70
2022-10-26T08:04:52.206Z,10.86
2022-10-26T08:07:20.176Z,11.00
2022-10-26T08:09:48.006Z,11.08
2022-10-26T08:12:16.629Z,11.27
2022-10-26T08:14:44.751Z,11.39
2022-10-26T08:17:12.704Z,11.51
2022-10-26T08:19:40.465Z,11.57
2022-10-26T08:22:10.123Z,11.63
2022-10-26T08:24:38.296Z,11.81
2022-10-26T08:27:06.201Z,11.70
2022-10-26T08:29:33.983Z,11.76
2022-10-26T08:32:01.830Z,11.82
2022-10-26T08:34:29.892Z,11.89
2022-10-26T08:36:57.766Z,11.76
2022-10-26T08:39:28.648Z,11.89
2022-10-26T08:42:03.724Z,11.96
2022-10-26T08:44:38.632Z,11.90
2022-10-26T08:47:11.995Z,12.32
2022-10-26T08:49:47.389Z,12.57
2022-10-26T08:52:20.414Z,12.63
2022-10-26T08:54:53.141Z,12.74
2022-10-26T08:57:26.942Z,12.87
2022-10-26T09:00:00.168Z,12.80
2022-10-26T09:02:28.173Z,12.84
2022-10-26T09:04:56.513Z,12.81
2022-10-26T09:07:49.763Z,12.91
2022-10-26T09:10:51.533Z,12.99
2022-10-26T09:13:29.199Z,13.22
2022-10-26T09:16:05.344Z,13.27
2022-10-26T09:21:38.076Z,13.35
2022-10-26T09:24:14.510Z,13.43
2022-10-26T09:26:54.530Z,13.58
2022-10-26T09:29:26.394Z,13.58
2022-10-26T09:31:59.378Z,13.74
2022-10-26T09:34:32.504Z,13.74
2022-10-26T09:37:00.374Z,13.53
2022-10-26T09:39:37.729Z,13.73
2022-10-26T09:42:17.395Z,13.78
2022-10-26T09:44:51.774Z,13.82
2022-10-26T09:47:32.696Z,13.92
2022-10-26T09:50:07.743Z,13.87
2022-10-26T09:52:35.669Z,13.75
2022-10-26T09:55:03.548Z,13.79
2022-10-26T09:57:33.242Z,13.80
2022-10-26T10:00:01.208Z,13.78
2022-10-26T10:02:37.057Z,13.82
2022-10-26T10:05:27.463Z,13.80
2022-10-26T10:08:18.410Z,14.12
2022-10-26T10:10:58.003Z,14.42
2022-10-26T10:13:29.319Z,14.67
2022-10-26T10:16:05.324Z,14.67
2022-10-26T10:18:34.214Z,14.73
2022-10-26T10:21:02.367Z,14.76
2022-10-26T10:23:32.938Z,14.87
2022-10-26T10:26:07.000Z,14.75
2022-10-26T10:28:36.407Z,14.61
2022-10-26T10:31:07.060Z,14.16
2022-10-26T10:33:37.911Z,14.94
2022-10-26T10:36:09.681Z,14.78
2022-10-26T10:38:40.348Z,14.97
2022-10-26T10:41:17.986Z,15.04
2022-10-26T10:43:50.164Z,15.07
2022-10-26T10:46:24.079Z,15.22
2022-10-26T10:48:57.091Z,15.33
2022-10-26T10:51:26.805Z,15.24
2022-10-26T10:53:56.853Z,15.21
2022-10-26T10:56:39.389Z,15.37
2022-10-26T10:59:26.933Z,15.06
2022-10-26T11:02:07.948Z,15.55
2022-10-26T11:04:55.743Z,15.62
2022-10-26T11:07:26.325Z,15.62
2022-10-26T11:09:55.518Z,15.74
2022-10-26T11:12:28.580Z,15.87
2022-10-26T11:15:02.621Z,15.81
2022-10-26T11:17:34.635Z,15.90
2022-10-26T11:20:10.076Z,15.87
2022-10-26T11:22:44.699Z,15.95
2022-10-26T11:25:17.419Z,15.94
2022-10-26T11:27:50.655Z,15.93
2022-10-26T11:30:23.005Z,15.78
2022-10-26T11:32:55.295Z,15.51
2022-10-26T11:35:28.900Z,15.64
2022-10-26T11:38:02.818Z,15.67
2022-10-26T11:40:37.961Z,15.63
2022-10-26T11:43:16.018Z,15.61
2022-10-26T11:45:47.134Z,15.74
2022-10-26T11:48:20.713Z,15.82
2022-10-26T11:50:52.391Z,15.80
2022-10-26T11:53:25.832Z,15.77
2022-10-26T11:55:55.661Z,15.83
2022-10-26T11:58:25.979Z,15.78
2022-10-26T12:00:57.738Z,15.73
2022-10-26T12:03:29.673Z,15.82
2022-10-26T12:05:57.803Z,15.58
2022-10-26T12:08:31.100Z,15.87
2022-10-26T12:13:41.335Z,16.16
2022-10-26T12:16:21.956Z,16.17
2022-10-26T12:18:56.577Z,16.15
2022-10-26T12:21:28.736Z,16.26
2022-10-26T12:23:59.001Z,16.26
2022-10-26T12:26:54.501Z,16.55
2022-10-26T12:29:46.695Z,16.41
2022-10-26T12:32:51.476Z,16.31
2022-10-26T12:35:41.631Z,16.48
2022-10-26T12:39:06.573Z,16.46
2022-10-26T12:41:39.371Z,16.51
2022-10-26T12:44:35.195Z,16.57
2022-10-26T12:47:03.183Z,16.61
2022-10-26T12:50:00.842Z,16.71
2022-10-26T12:52:42.724Z,16.16
2022-10-26T12:55:42.911Z,16.60
2022-10-26T12:58:38.299Z,16.50
2022-10-26T13:01:24.755Z,16.37
2022-10-26T13:04:03.076Z,16.25
2022-10-26T13:06:47.316Z,16.14
2022-10-26T13:09:21.551Z,16.23
2022-10-26T13:11:51.185Z,16.10
2022-10-26T13:14:25.341Z,16.13
2022-10-26T13:16:54.129Z,16.13
2022-10-26T13:19:27.536Z,15.87
2022-10-26T13:21:59.702Z,16.00
2022-10-26T13:24:31.585Z,15.98
2022-10-26T13:27:41.592Z,16.21
2022-10-26T13:30:38.626Z,16.27
2022-10-26T13:33:14.822Z,16.28
2022-10-26T13:35:44.301Z,16.43
2022-10-26T13:38:14.087Z,16.40
2022-10-26T13:40:44.690Z,16.27
2022-10-26T13:43:20.064Z,16.23
2022-10-26T13:45:55.440Z,16.21
2022-10-26T13:48:32.801Z,15.97
2022-10-26T13:51:03.927Z,16.03
2022-10-26T13:53:41.390Z,16.28
2022-10-26T13:56:19.256Z,16.44
2022-10-26T13:58:51.638Z,16.65
2022-10-26T14:01:23.085Z,16.73
2022-10-26T14:03:51.812Z,16.86
2022-10-26T14:06:27.297Z,16.91
2022-10-26T14:08:59.289Z,16.86
2022-10-26T14:11:35.218Z,16.85
2022-10-26T14:14:04.879Z,16.60
2022-10-26T14:16:34.533Z,16.71
2022-10-26T14:19:02.616Z,16.70
2022-10-26T14:21:31.083Z,16.70
2022-10-26T14:24:00.221Z,16.59
2022-10-26T14:26:31.517Z,16.29
2022-10-26T14:29:01.272Z,16.55
2022-10-26T14:31:31.011Z,16.67
2022-10-26T14:34:01.575Z,16.65
2022-10-26T14:36:34.024Z,16.61
2022-10-26T14:39:06.563Z,16.49
2022-10-26T14:41:37.375Z,16.63
2022-10-26T14:44:05.749Z,16.48
2022-10-26T14:46:36.393Z,16.44
2022-10-26T14:49:05.291Z,16.37
2022-10-26T14:51:36.802Z,16.20
2022-10-26T14:54:05.789Z,16.37
2022-10-26T14:56:41.810Z,16.44
2022-10-26T14:59:19.774Z,16.38
2022-10-26T15:01:50.920Z,16.27
2022-10-26T15:04:30.824Z,16.16
2022-10-26T15:07:18.421Z,16.25
2022-10-26T15:09:47.561Z,16.08
2022-10-26T15:12:32.738Z,15.88
2022-10-26T15:15:11.687Z,15.93
2022-10-26T15:17:42.794Z,15.92
2022-10-26T15:20:17.735Z,15.92
2022-10-26T15:22:51.653Z,15.71
2022-10-26T15:25:22.999Z,15.80
2022-10-26T15:27:52.865Z,15.71
2022-10-26T15:30:25.126Z,15.57
2022-10-26T15:32:53.716Z,15.55
2022-10-26T15:35:28.735Z,15.34
2022-10-26T15:37:58.241Z,15.37
2022-10-26T15:40:29.017Z,15.41
2022-10-26T15:43:01.803Z,14.64
2022-10-26T15:45:33.163Z,14.97
2022-10-26T15:48:21.163Z,15.31
2022-10-26T15:50:49.028Z,15.10
2022-10-26T15:53:21.354Z,15.07
2022-10-26T15:55:49.702Z,14.99
2022-10-26T15:58:19.181Z,14.85
2022-10-26T16:00:47.613Z,14.76
2022-10-26T16:03:18.764Z,14.73
2022-10-26T16:05:47.125Z,14.74
2022-10-26T16:08:18.400Z,14.53
2022-10-26T16:10:48.561Z,14.49
2022-10-26T16:13:18.550Z,14.48
2022-10-26T16:15:46.489Z,14.26
2022-10-26T16:18:14.697Z,14.38
2022-10-26T16:20:42.674Z,14.30
2022-10-26T16:23:10.533Z,14.31
2022-10-26T16:25:43.777Z,14.22
2022-10-26T16:28:13.838Z,14.26
2022-10-26T16:30:43.167Z,14.15
2022-10-26T16:33:11.020Z,14.13
2022-10-26T16:35:38.887Z,13.86
2022-10-26T16:38:07.046Z,13.91
2022-10-26T16:40:35.398Z,13.84
2022-10-26T16:43:03.236Z,13.77
2022-10-26T16:45:31.221Z,13.72
2022-10-26T16:48:00.480Z,13.57
2022-10-26T16:50:29.281Z,13.53
2022-10-26T16:52:58.153Z,13.70
2022-10-26T16:55:26.072Z,13.61
2022-10-26T16:57:54.256Z,13.34
2022-10-26T17:00:22.461Z,13.40
2022-10-26T17:02:50.306Z,13.27
2022-10-26T17:05:19.667Z,13.20
2022-10-26T17:07:48.442Z,13.17
2022-10-26T17:10:16.811Z,13.11
2022-10-26T17:12:44.712Z,13.06
2022-10-26T17:15:15.913Z,13.00
2022-10-26T17:17:46.814Z,12.98
2022-10-26T17:20:15.000Z,12.94
2022-10-26T17:22:44.208Z,12.95
2022-10-26T17:25:12.209Z,12.74
2022-10-26T17:27:44.825Z,12.92
2022-10-26T17:30:15.608Z,13.00
2022-10-26T17:32:43.732Z,12.98
2022-10-26T17:35:11.885Z,12.94
2022-10-26T17:37:40.909Z,12.89
2022-10-26T17:40:11.420Z,12.87
2022-10-26T17:42:40.372Z,12.70
2022-10-26T17:45:09.723Z,12.65
2022-10-26T17:47:37.648Z,12.41
2022-10-26T17:50:06.456Z,12.19
2022-10-26T17:52:34.452Z,12.34
2022-10-26T17:55:03.013Z,12.26
2022-10-26T17:57:33.743Z,12.23
2022-10-26T18:00:01.671Z,12.10
2022-10-26T18:02:29.962Z,12.11
2022-10-26T18:04:58.010Z,12.09
2022-10-26T18:07:26.090Z,11.99
2022-10-26T18:09:54.149Z,11.65
2022-10-26T18:12:22.144Z,12.10
2022-10-26T18:14:51.508Z,12.02
2022-10-26T18:17:19.437Z,11.96
2022-10-26T18:19:47.407Z,11.93
2022-10-26T18:22:15.275Z,11.87
2022-10-26T18:24:43.355Z,11.85
2022-10-26T18:27:11.418Z,11.73
2022-10-26T18:29:39.951Z,11.70
2022-10-26T18:32:12.323Z,11.78
2022-10-26T18:34:40.192Z,11.73
2022-10-26T18:37:08.384Z,11.69
2022-10-26T18:39:36.273Z,11.69
2022-10-26T18:42:04.223Z,11.73
2022-10-26T18:44:32.501Z,11.62
2022-10-26T18:47:00.330Z,11.56
2022-10-26T18:49:29.937Z,11.23
2022-10-26T18:51:58.184Z,11.43
2022-10-26T18:54:28.319Z,11.49
2022-10-26T18:56:58.945Z,11.34
2022-10-26T18:59:26.883Z,11.32
2022-10-26T19:01:54.910Z,11.34
2022-10-26T19:04:23.247Z,11.31
2022-10-26T19:06:52.565Z,11.28
2022-10-26T19:09:20.971Z,11.25
2022-10-26T19:11:48.869Z,11.22
2022-10-26T19:14:16.823Z,11.37
2022-10-26T19:16:46.695Z,11.32
2022-10-26T19:19:15.568Z,11.03
2022-10-26T19:21:43.936Z,10.84
2022-10-26T19:24:16.054Z,10.89
2022-10-26T19:26:44.525Z,10.89
2022-10-26T19:29:15.411Z,10.94
2022-10-26T19:31:44.475Z,10.95
2022-10-26T19:34:13.601Z,10.98
2022-10-26T19:36:44.878Z,11.00
2022-10-26T19:39:15.432Z,11.01
2022-10-26T19:41:43.694Z,10.90
2022-10-26T19:44:14.090Z,10.83
2022-10-26T19:46:43.224Z,10.82
2022-10-26T19:49:12.440Z,10.88
2022-10-26T19:51:40.758Z,10.90
2022-10-26T19:54:08.625Z,11.05
2022-10-26T19:56:38.570Z,11.16
2022-10-26T19:59:08.028Z,11.05
2022-10-26T20:01:36.400Z,10.65
2022-10-26T20:04:05.936Z,10.98
2022-10-26T20:06:33.850Z,10.99
2022-10-26T20:09:02.364Z,10.74
2022-10-26T20:11:32.119Z,10.90
2022-10-26T20:14:01.735Z,10.80
2022-10-26T20:16:29.627Z,10.82
2022-10-26T20:18:57.503Z,10.73
2022-10-26T20:21:25.441Z,10.59
2022-10-26T20:23:53.349Z,10.59
2022-10-26T20:26:22.556Z,10.78
2022-10-26T20:28:52.094Z,10.56
2022-10-26T20:31:21.357Z,10.73
2022-10-26T20:33:51.750Z,10.33
2022-10-26T20:36:19.799Z,10.56
2022-10-26T20:38:48.262Z,10.57
2022-10-26T20:41:16.875Z,10.58
2022-10-26T20:43:45.363Z,10.61
2022-10-26T20:46:22.250Z,10.58
2022-10-26T20:48:52.737Z,10.66
2022-10-26T20:51:26.439Z,10.46
2022-10-26T20:54:06.446Z,10.59
2022-10-26T20:56:35.390Z,10.53
2022-10-26T20:59:04.975Z,10.44
2022-10-26T21:01:35.225Z,10.50
2022-10-26T21:04:05.306Z,10.67
2022-10-26T21:06:39.874Z,10.77
2022-10-26T21:09:08.891Z,10.70
2022-10-26T21:11:37.160Z,10.72
2022-10-26T21:14:06.378Z,10.94
2022-10-26T21:16:34.240Z,10.85
2022-10-26T21:19:04.949Z,10.66
2022-10-26T21:21:34.267Z,10.62
2022-10-26T21:24:02.576Z,10.57
2022-10-26T21:26:30.492Z,10.48
2022-10-26T21:28:58.254Z,10.28
2022-10-26T21:31:26.122Z,10.36
2022-10-26T21:33:54.012Z,10.43
2022-10-26T21:36:22.290Z,10.38
2022-10-26T21:38:51.860Z,10.19
2022-10-26T21:41:21.343Z,10.29
2022-10-26T21:43:59.299Z,10.35
2022-10-26T21:46:37.927Z,10.25
2022-10-26T21:49:05.903Z,10.28
2022-10-26T21:51:34.904Z,10.20
2022-10-26T21:54:04.408Z,10.18
2022-10-26T21:56:32.426Z,10.09
2022-10-26T21:59:01.434Z,10.04
2022-10-26T22:01:29.544Z,10.09
2022-10-26T22:03:57.634Z,10.10
2022-10-26T22:06:25.963Z,10.15
2022-10-26T22:08:54.351Z,10.02
2022-10-26T22:11:25.091Z,10.17
2022-10-26T22:13:54.196Z,10.29
2022-10-26T22:16:24.479Z,10.24
2022-10-26T22:18:52.684Z,10.19
2022-10-26T22:21:21.879Z,10.14
2022-10-26T22:23:49.696Z,10.08
2022-10-26T22:26:19.839Z,10.00
2022-10-26T22:28:51.731Z,9.95
2022-10-26T22:31:22.060Z,10.03
2022-10-26T22:33:52.530Z,10.03
2022-10-26T22:36:20.424Z,10.04
2022-10-26T22:38:49.704Z,9.94
2022-10-26T22:41:18.330Z,9.95
2022-10-26T22:43:46.646Z,9.97
2022-10-26T22:46:17.912Z,9.91
2022-10-26T22:48:46.311Z,10.00
2022-10-26T22:51:16.160Z,10.01
2022-10-26T22:53:45.740Z,9.78
2022-10-26T22:56:15.020Z,9.81
2022-10-26T22:58:42.864Z,9.92
2022-10-26T23:01:14.614Z,9.60
2022-10-26T23:03:44.737Z,9.64
2022-10-26T23:06:15.708Z,9.74
2022-10-26T23:08:43.976Z,9.72
2022-10-26T23:11:14.018Z,9.68
2022-10-26T23:13:42.426Z,9.53
2022-10-26T23:16:12.811Z,9.51
2022-10-26T23:18:41.309Z,9.65
2022-10-26T23:21:12.237Z,9.56
2022-10-26T23:23:40.944Z,9.53
2022-10-26T23:26:12.088Z,9.37
2022-10-26T23:28:41.464Z,9.68
2022-10-26T23:31:14.568Z,9.64
2022-10-26T23:33:42.495Z,9.63
2022-10-26T23:36:12.265Z,9.64
2022-10-26T23:38:40.107Z,9.60
2022-10-26T23:41:10.752Z,9.33
2022-10-26T23:43:41.238Z,9.39
2022-10-26T23:46:09.127Z,9.46
2022-10-26T23:48:37.015Z,9.42
2022-10-26T23:51:05.203Z,9.42
2022-10-26T23:53:34.510Z,9.40
2022-10-26T23:56:02.293Z,9.35
2022-10-26T23:58:30.163Z,9.33
